createdAt,value
2018-11-22T12:18:08.163Z,44.83
2018-11-22T12:20:38.258Z,45.57
2018-11-22T12:23:08.108Z,45.63
2018-11-22T12:25:37.877Z,44.27
2018-11-22T12:28:07.840Z,44.84
2018-11-22T12:30:37.709Z,46.21
2018-11-22T12:33:09.532Z,45.67
2018-11-22T12:35:42.155Z,45.06
2018-11-22T12:38:17.318Z,45.81
2018-11-22T12:40:47.162Z,46.35
2018-11-22T12:43:17.035Z,46.19
2018-11-22T12:45:46.824Z,46.04
2018-11-22T12:48:17.310Z,46.85
2018-11-22T12:50:47.159Z,46.54
2018-11-22T12:53:17.063Z,45.86
2018-11-22T12:55:46.806Z,47.10
2018-11-22T12:58:16.515Z,46.40
2018-11-22T13:00:46.377Z,46.85
2018-11-22T13:03:16.215Z,46.41
2018-11-22T13:05:46.019Z,46.96
2018-11-22T13:08:15.829Z,47.17
2018-11-22T13:10:45.657Z,47.26
2018-11-22T13:13:15.532Z,47.83
2018-11-22T13:15:45.391Z,47.27
2018-11-22T13:18:17.225Z,46.25
2018-11-22T13:20:47.299Z,47.03
2018-11-22T13:23:17.069Z,46.42
2018-11-22T13:25:47.041Z,46.44
2018-11-22T13:28:17.818Z,46.75
2018-11-22T13:30:47.617Z,47.30
2018-11-22T13:33:17.530Z,46.82
2018-11-22T13:35:47.040Z,46.84
2018-11-22T13:38:16.784Z,48.19
2018-11-22T13:40:46.619Z,48.20
2018-11-22T13:43:16.400Z,48.07
2018-11-22T13:45:46.206Z,48.74
2018-11-22T13:48:16.014Z,48.58
2018-11-22T13:50:45.887Z,48.32
2018-11-22T13:53:20.400Z,48.72
2018-11-22T13:55:45.660Z,49.54
2018-11-22T13:58:15.497Z,49.02
2018-11-22T14:00:45.328Z,48.72
2018-11-22T14:03:15.056Z,48.77
2018-11-22T14:05:44.860Z,48.46
2018-11-22T14:08:14.727Z,48.94
2018-11-22T14:10:44.487Z,48.46
2018-11-22T14:13:14.398Z,49.34
2018-11-22T14:15:44.265Z,48.71
2018-11-22T14:18:14.172Z,49.04
2018-11-22T14:20:43.949Z,49.20
2018-11-22T14:23:13.941Z,50.40
2018-11-22T14:25:48.999Z,49.73
2018-11-22T14:28:13.771Z,49.43
2018-11-22T14:30:43.501Z,50.33
2018-11-22T14:33:13.330Z,50.40
2018-11-22T14:35:43.230Z,50.59
2018-11-22T14:38:13.136Z,50.77
2018-11-22T14:40:43.085Z,50.58
2018-11-22T14:43:12.609Z,49.93
2018-11-22T14:45:42.395Z,50.35
2018-11-22T14:48:12.099Z,50.54
2018-11-22T14:50:44.436Z,51.33
2018-11-22T14:53:17.110Z,50.92
2018-11-22T14:55:46.957Z,51.22
2018-11-22T14:58:17.466Z,51.43
2018-11-22T15:00:47.147Z,51.80
2018-11-22T15:03:16.985Z,51.91
2018-11-22T15:05:46.812Z,51.66
2018-11-22T15:08:16.588Z,51.75
2018-11-22T15:10:46.428Z,52.44
2018-11-22T15:13:16.300Z,52.15
2018-11-22T15:15:46.261Z,52.31
2018-11-22T15:18:16.030Z,52.28
2018-11-22T15:20:45.756Z,52.82
2018-11-22T15:23:15.588Z,52.42
2018-11-22T15:25:45.603Z,52.55
2018-11-22T15:28:15.464Z,52.51
2018-11-22T15:30:45.180Z,53.07
2018-11-22T15:33:14.996Z,53.22
2018-11-22T15:35:44.948Z,53.49
2018-11-22T15:38:14.893Z,53.43
2018-11-22T15:40:44.880Z,53.57
2018-11-22T15:43:14.576Z,53.84
2018-11-22T15:45:44.409Z,53.93
2018-11-22T15:48:14.321Z,54.47
2018-11-22T15:50:44.251Z,53.98
2018-11-22T15:53:14.093Z,54.54
2018-11-22T15:55:43.903Z,54.87
2018-11-22T15:58:13.775Z,55.38
2018-11-22T16:00:43.602Z,54.63
2018-11-22T16:03:13.341Z,54.70
2018-11-22T16:05:43.117Z,55.25
2018-11-22T16:08:13.015Z,55.05
2018-11-22T16:10:42.855Z,55.55
2018-11-22T16:13:13.541Z,56.01
2018-11-22T16:15:46.527Z,55.90
2018-11-22T16:18:17.362Z,55.77
2018-11-22T16:20:47.262Z,55.80
2018-11-22T16:23:17.168Z,56.38
2018-11-22T16:25:46.911Z,56.87
2018-11-22T16:28:17.611Z,56.42
2018-11-22T16:30:47.381Z,56.60
2018-11-22T16:33:17.386Z,56.71
2018-11-22T16:35:47.275Z,56.71
2018-11-22T16:38:17.934Z,56.47
2018-11-22T16:40:47.741Z,55.98
2018-11-22T16:43:17.534Z,54.99
2018-11-22T16:45:47.332Z,55.65
2018-11-22T16:48:17.179Z,56.17
2018-11-22T16:50:47.099Z,55.72
2018-11-22T16:53:16.953Z,58.19
2018-11-22T16:55:46.722Z,59.59
2018-11-22T16:58:16.521Z,59.51
2018-11-22T17:00:46.419Z,59.16
2018-11-22T17:03:16.327Z,59.19
2018-11-22T17:05:46.228Z,58.89
2018-11-22T17:08:16.080Z,59.70
2018-11-22T17:10:46.029Z,59.48
2018-11-22T17:13:15.749Z,59.64
2018-11-22T17:15:45.566Z,59.61
2018-11-22T17:18:15.183Z,58.96
2018-11-22T17:20:45.052Z,59.28
2018-11-22T17:23:14.741Z,58.89
2018-11-22T17:25:44.674Z,58.15
2018-11-22T17:28:14.592Z,58.14
2018-11-22T17:30:45.673Z,58.65
2018-11-22T17:33:15.640Z,58.44
2018-11-22T17:35:45.587Z,58.51
2018-11-22T17:38:15.867Z,58.29
2018-11-22T17:40:47.447Z,58.80
2018-11-22T17:43:17.646Z,59.75
2018-11-22T17:45:49.066Z,59.42
2018-11-22T17:48:19.604Z,59.70
2018-11-22T17:50:49.635Z,58.97
2018-11-22T17:53:19.391Z,58.82
2018-11-22T17:55:49.185Z,59.01
2018-11-22T17:58:19.225Z,59.00
2018-11-22T18:00:50.519Z,59.77
2018-11-22T18:03:20.755Z,60.18
2018-11-22T18:05:51.281Z,59.82
2018-11-22T18:08:22.101Z,60.12
2018-11-22T18:10:51.993Z,59.86
2018-11-22T18:13:21.787Z,60.16
2018-11-22T18:15:58.060Z,59.85
2018-11-22T18:18:29.599Z,59.31
2018-11-22T18:20:59.323Z,59.69
2018-11-22T18:23:29.128Z,60.34
2018-11-22T18:25:59.021Z,59.94
2018-11-22T18:28:29.301Z,60.44
2018-11-22T18:30:59.284Z,60.29
2018-11-22T18:33:29.096Z,60.00
2018-11-22T18:35:58.876Z,60.33
2018-11-22T18:38:28.700Z,59.83
2018-11-22T18:40:58.490Z,59.89
2018-11-22T18:43:28.283Z,59.45
2018-11-22T18:45:58.016Z,60.66
2018-11-22T18:48:27.895Z,59.09
2018-11-22T18:50:57.747Z,59.38
2018-11-22T18:53:27.617Z,59.83
2018-11-22T18:55:57.402Z,59.51
2018-11-22T18:58:27.187Z,60.48
2018-11-22T19:00:57.060Z,60.72
2018-11-22T19:03:26.996Z,60.25
2018-11-22T19:05:56.832Z,59.38
2018-11-22T19:08:26.698Z,61.04
2018-11-22T19:10:56.500Z,60.18
2018-11-22T19:13:26.326Z,62.16
2018-11-22T19:15:56.128Z,63.77
2018-11-22T19:18:26.026Z,63.93
2018-11-22T19:20:55.720Z,65.21
2018-11-22T19:23:25.431Z,64.72
2018-11-22T19:25:55.395Z,65.17
2018-11-22T19:28:25.220Z,66.18
2018-11-22T19:30:55.075Z,65.59
2018-11-22T19:33:25.084Z,65.56
2018-11-22T19:35:55.400Z,65.52
2018-11-22T19:38:25.303Z,66.03
2018-11-22T19:40:55.025Z,66.01
2018-11-22T19:43:24.849Z,66.16
2018-11-22T19:45:54.720Z,65.97
2018-11-22T19:48:24.550Z,66.25
2018-11-22T19:50:54.395Z,65.95
2018-11-22T19:53:24.248Z,66.81
2018-11-22T19:55:54.182Z,65.92
2018-11-22T19:58:23.949Z,66.26
2018-11-22T20:00:53.799Z,66.09
2018-11-22T20:03:23.640Z,67.58
2018-11-22T20:05:53.374Z,68.39
2018-11-22T20:08:23.262Z,66.78
2018-11-22T20:10:53.184Z,67.04
2018-11-22T20:13:23.121Z,68.45
2018-11-22T20:15:52.883Z,68.99
2018-11-22T20:18:22.676Z,70.81
2018-11-22T20:20:52.517Z,71.00
2018-11-22T20:23:22.355Z,70.93
2018-11-22T20:25:52.278Z,70.79
2018-11-22T20:28:22.045Z,68.80
2018-11-22T20:30:51.920Z,68.39
2018-11-22T20:33:22.041Z,68.07
2018-11-22T20:35:52.219Z,67.63
2018-11-22T20:38:22.087Z,67.63
2018-11-22T20:40:57.289Z,66.32
2018-11-22T20:43:22.028Z,66.27
2018-11-22T20:45:52.025Z,65.60
2018-11-22T20:48:21.909Z,67.87
2018-11-22T20:50:51.656Z,66.23
2018-11-22T20:53:21.523Z,66.42
2018-11-22T20:55:51.320Z,65.32
2018-11-22T20:58:21.160Z,68.70
2018-11-22T21:00:51.025Z,66.43
2018-11-22T21:03:20.749Z,65.06
2018-11-22T21:05:50.472Z,67.24
2018-11-22T21:08:20.380Z,66.27
2018-11-22T21:10:50.182Z,66.51
2018-11-22T21:13:19.987Z,65.93
2018-11-22T21:15:49.776Z,66.62
2018-11-22T21:18:19.689Z,65.71
2018-11-22T21:20:49.467Z,65.68
2018-11-22T21:23:19.261Z,66.68
2018-11-22T21:25:49.110Z,66.28
2018-11-22T21:28:18.982Z,66.61
2018-11-22T21:30:48.838Z,66.56
2018-11-22T21:33:18.702Z,66.46
2018-11-22T21:35:48.498Z,65.83
2018-11-22T21:38:18.431Z,66.86
2018-11-22T21:40:48.188Z,68.13
2018-11-22T21:43:17.892Z,68.11
2018-11-22T21:45:47.776Z,68.00
2018-11-22T21:48:17.475Z,66.17
2018-11-22T21:50:47.259Z,66.00
2018-11-22T21:53:17.259Z,65.43
2018-11-22T21:55:47.040Z,65.46
2018-11-22T21:58:16.864Z,65.55
2018-11-22T22:00:46.736Z,64.64
2018-11-22T22:03:16.514Z,65.80
2018-11-22T22:05:46.348Z,66.59
2018-11-22T22:08:16.159Z,67.09
2018-11-22T22:10:45.926Z,67.29
2018-11-22T22:13:15.908Z,66.72
2018-11-22T22:15:45.756Z,67.86
2018-11-22T22:18:21.195Z,68.95
2018-11-22T22:20:45.559Z,68.90
2018-11-22T22:23:15.291Z,68.13
2018-11-22T22:25:45.155Z,67.64
2018-11-22T22:28:14.991Z,67.55
2018-11-22T22:30:44.809Z,66.78
2018-11-22T22:33:14.643Z,67.11
2018-11-22T22:35:44.392Z,66.20
2018-11-22T22:38:14.414Z,65.79
2018-11-22T22:40:44.214Z,66.92
2018-11-22T22:43:13.915Z,67.49
2018-11-22T22:45:43.701Z,67.80
2018-11-22T22:48:13.503Z,67.78
2018-11-22T22:50:43.277Z,67.54
2018-11-22T22:53:13.072Z,68.09
2018-11-22T22:55:42.867Z,68.39
2018-11-22T22:58:12.781Z,68.73
2018-11-22T23:00:46.712Z,67.61
2018-11-22T23:03:17.019Z,66.99
2018-11-22T23:05:46.686Z,66.91
2018-11-22T23:08:17.284Z,66.68
2018-11-22T23:10:47.242Z,67.74
2018-11-22T23:13:17.252Z,66.10
2018-11-22T23:15:47.098Z,67.25
2018-11-22T23:18:17.284Z,66.91
2018-11-22T23:20:47.212Z,67.54
2018-11-22T23:23:17.049Z,68.78
2018-11-22T23:25:46.751Z,69.67
2018-11-22T23:28:16.578Z,70.16
2018-11-22T23:30:46.343Z,70.44
2018-11-22T23:33:16.092Z,70.92
2018-11-22T23:35:45.908Z,70.44
2018-11-22T23:38:15.722Z,70.43
2018-11-22T23:40:45.534Z,70.50
2018-11-22T23:43:15.374Z,70.08
2018-11-22T23:45:45.149Z,68.91
2018-11-22T23:48:14.944Z,68.27
2018-11-22T23:50:44.841Z,67.61
2018-11-22T23:53:14.581Z,68.08
2018-11-22T23:55:44.217Z,67.61
2018-11-22T23:58:14.148Z,67.52
